Terminal Aerodrome Forecast
Issued by NWS Omaha/Valley, NE

Home | Current Version | Previous Version | Text Only | Print | Product List | Glossary On
Versions: 1 2 3 4 5 6 7 8 9 10 11 12 13 14 15 16 17 18 19
000
FTUS43 KOAX 251134
TAFOMA
TAF
KOMA 251134Z 2512/2612 02005KT 6SM -SHRA VCTS SCT007 BKN045CB
      TEMPO 2512/2515 2SM TSRA OVC007CB
     FM251500 35006KT 6SM -SHRA VCTS OVC020CB
      TEMPO 2517/2520 2SM TSRA OVC007CB
     FM252300 35008KT 5SM -SHRA BR OVC008=

USA.gov is the U.S. government's official web portal to all federal, state and local government web resources and services.